Time,TemperatureF,DewpointF,PressureIn,WindDirection,WindDirectionDegrees,WindSpeedMPH,WindSpeedGustMPH,Humidity,HourlyPrecipIn,Conditions,Clouds,dailyrainin,SoftwareType,DateUTC
2013-04-15 00:00:00,32.8,32.8,29.62,SSE,157,0.0,5.0,100,0.00,,,0.05,Weather View 32 v70,2013-04-15 04:00:00,
2013-04-15 00:02:00,33.2,33.2,29.62,SSE,157,2.0,4.0,100,0.00,,,0.00,Weather View 32 v70,2013-04-15 04:02:00,
2013-04-15 00:07:00,33.4,33.1,29.62,SSE,157,0.0,4.0,99,0.00,,,0.00,Weather View 32 v70,2013-04-15 04:07:00,
2013-04-15 00:12:00,32.8,32.0,29.62,SSE,157,2.0,4.0,97,0.00,,,0.00,Weather View 32 v70,2013-04-15 04:12:00,
2013-04-15 00:17:00,32.9,32.9,29.62,SSE,157,2.0,4.0,100,0.00,,,0.00,Weather View 32 v70,2013-04-15 04:17:00,
2013-04-15 00:22:00,33.3,33.3,29.62,SSE,157,2.0,4.0,100,0.00,,,0.00,Weather View 32 v70,2013-04-15 04:22:00,
2013-04-15 00:27:00,32.6,31.6,29.62,SSE,157,3.0,4.0,96,0.00,,,0.00,Weather View 32 v70,2013-04-15 04:27:00,
2013-04-15 00:32:00,32.4,32.4,29.62,SSE,157,2.0,4.0,100,0.00,,,0.00,Weather View 32 v70,2013-04-15 04:32:00,
2013-04-15 00:37:00,32.5,32.5,29.62,SSE,157,2.0,4.0,100,0.00,,,0.00,Weather View 32 v70,2013-04-15 04:37:00,
2013-04-15 00:42:00,32.4,32.4,29.63,East,90,0.0,4.0,100,0.00,,,0.00,Weather View 32 v70,2013-04-15 04:42:00,
2013-04-15 00:47:00,32.2,32.0,29.63,SSE,157,2.0,4.0,99,0.00,,,0.00,Weather View 32 v70,2013-04-15 04:47:00,
2013-04-15 00:52:00,31.7,31.2,29.64,SSE,157,2.0,4.0,98,0.00,,,0.00,Weather View 32 v70,2013-04-15 04:52:00,
2013-04-15 00:57:00,31.9,31.9,29.64,SSE,157,0.0,4.0,100,0.00,,,0.00,Weather View 32 v70,2013-04-15 04:57:00,
2013-04-15 01:02:00,31.7,31.7,29.65,SSE,157,0.0,4.0,100,0.00,,,0.00,Weather View 32 v70,2013-04-15 05:02:00,
2013-04-15 01:07:00,31.4,30.6,29.65,South,180,2.0,4.0,97,0.00,,,0.00,Weather View 32 v70,2013-04-15 05:07:00,
2013-04-15 01:12:00,31.4,31.4,29.65,SSE,157,0.0,4.0,100,0.00,,,0.00,Weather View 32 v70,2013-04-15 05:12:00,
2013-04-15 01:17:00,31.2,31.0,29.65,SSE,157,0.0,3.0,99,0.00,,,0.00,Weather View 32 v70,2013-04-15 05:17:00,
2013-04-15 01:22:00,31.2,31.2,29.65,ESE,112,0.0,3.0,100,0.00,,,0.00,Weather View 32 v70,2013-04-15 05:22:00,
2013-04-15 01:27:00,31.3,30.8,29.65,SSE,157,1.0,3.0,98,0.00,,,0.00,Weather View 32 v70,2013-04-15 05:27:00,
2013-04-15 01:32:00,30.9,30.4,29.65,SSW,202,0.0,3.0,98,0.00,,,0.00,Weather View 32 v70,2013-04-15 05:32:00,
2013-04-15 01:37:00,31.1,31.1,29.65,SSE,157,0.0,3.0,100,0.00,,,0.00,Weather View 32 v70,2013-04-15 05:37:00,
2013-04-15 01:42:00,31.0,30.5,29.65,SSE,157,0.0,3.0,98,0.00,,,0.00,Weather View 32 v70,2013-04-15 05:42:00,
2013-04-15 01:47:00,31.2,31.2,29.65,SSE,157,0.0,3.0,100,0.00,,,0.00,Weather View 32 v70,2013-04-15 05:47:00,
2013-04-15 01:52:00,30.8,30.8,29.65,SSE,157,0.0,3.0,100,0.00,,,0.00,Weather View 32 v70,2013-04-15 05:52:00,
2013-04-15 01:57:00,31.0,31.0,29.65,SSE,157,0.0,3.0,100,0.00,,,0.00,Weather View 32 v70,2013-04-15 05:57:00,
2013-04-15 02:02:00,30.8,30.8,29.65,SSE,157,0.0,3.0,100,0.00,,,0.00,Weather View 32 v70,2013-04-15 06:02:00,
2013-04-15 02:07:00,30.3,29.8,29.64,SSE,157,0.0,3.0,98,0.00,,,0.00,Weather View 32 v70,2013-04-15 06:07:00,
2013-04-15 02:12:00,30.1,29.6,29.64,SSE,157,0.0,3.0,98,0.00,,,0.00,Weather View 32 v70,2013-04-15 06:12:00,
2013-04-15 02:17:00,30.1,29.6,29.64,SSE,157,0.0,3.0,98,0.00,,,0.00,Weather View 32 v70,2013-04-15 06:17:00,
2013-04-15 02:22:00,30.2,30.0,29.64,SSE,157,0.0,3.0,99,0.00,,,0.00,Weather View 32 v70,2013-04-15 06:22:00,
2013-04-15 02:27:00,30.3,30.3,29.64,SSE,157,0.0,3.0,100,0.00,,,0.00,Weather View 32 v70,2013-04-15 06:27:00,
2013-04-15 02:33:00,30.4,30.4,29.64,SSE,157,0.0,0.0,100,0.00,,,0.00,Weather View 32 v70,2013-04-15 06:33:00,
2013-04-15 02:38:00,30.1,29.9,29.65,SSE,157,0.0,0.0,99,0.00,,,0.00,Weather View 32 v70,2013-04-15 06:38:00,
2013-04-15 02:43:00,30.1,30.1,29.64,SSE,157,0.0,0.0,100,0.00,,,0.00,Weather View 32 v70,2013-04-15 06:43:00,
2013-04-15 02:48:00,30.2,30.2,29.64,SSE,157,0.0,0.0,100,0.00,,,0.00,Weather View 32 v70,2013-04-15 06:48:00,
2013-04-15 02:53:00,29.5,29.5,29.64,South,180,0.0,0.0,100,0.00,,,0.00,Weather View 32 v70,2013-04-15 06:53:00,
2013-04-15 02:58:00,29.4,29.4,29.64,SSE,157,0.0,0.0,100,0.00,,,0.00,Weather View 32 v70,2013-04-15 06:58:00,
2013-04-15 03:03:00,30.0,30.0,29.64,SSE,157,0.0,0.0,100,0.00,,,0.00,Weather View 32 v70,2013-04-15 07:03:00,
2013-04-15 03:41:00,29.1,29.1,29.64,SSW,202,0.0,4.0,100,0.00,,,0.00,Weather View 32 v70,2013-04-15 07:41:00,
2013-04-15 03:42:00,29.2,29.2,29.64,SSW,202,0.0,4.0,100,0.00,,,0.00,Weather View 32 v70,2013-04-15 07:42:00,
2013-04-15 03:47:00,28.9,28.9,29.64,South,180,0.0,4.0,100,0.00,,,0.00,Weather View 32 v70,2013-04-15 07:47:00,
2013-04-15 03:48:00,28.8,28.8,29.64,South,180,0.0,4.0,100,0.00,,,0.00,Weather View 32 v70,2013-04-15 07:48:00,
2013-04-15 03:53:00,29.2,29.2,29.64,South,180,0.0,4.0,100,0.00,,,0.00,Weather View 32 v70,2013-04-15 07:53:00,
2013-04-15 03:58:00,28.6,28.6,29.65,South,180,0.0,4.0,100,0.00,,,0.00,Weather View 32 v70,2013-04-15 07:58:00,
2013-04-15 04:03:00,28.4,28.4,29.65,South,180,0.0,4.0,100,0.00,,,0.00,Weather View 32 v70,2013-04-15 08:03:00,
2013-04-15 04:08:00,29.1,29.1,29.65,South,180,0.0,4.0,100,0.00,,,0.00,Weather View 32 v70,2013-04-15 08:08:00,
2013-04-15 04:13:00,29.3,29.3,29.65,South,180,0.0,4.0,100,0.00,,,0.00,Weather View 32 v70,2013-04-15 08:13:00,
2013-04-15 04:18:00,29.4,29.4,29.65,SSE,157,1.0,4.0,100,0.00,,,0.00,Weather View 32 v70,2013-04-15 08:18:00,
2013-04-15 04:23:00,29.3,29.3,29.65,SSE,157,1.0,4.0,100,0.00,,,0.00,Weather View 32 v70,2013-04-15 08:23:00,
2013-04-15 04:28:00,29.7,29.7,29.65,SSE,157,0.0,4.0,100,0.00,,,0.00,Weather View 32 v70,2013-04-15 08:28:00,
2013-04-15 04:34:00,29.1,29.1,29.65,SSW,202,0.0,3.0,100,0.00,,,0.00,Weather View 32 v70,2013-04-15 08:34:00,
2013-04-15 04:35:00,29.0,29.0,29.65,SSW,202,0.0,3.0,100,0.00,,,0.00,Weather View 32 v70,2013-04-15 08:35:00,
2013-04-15 04:40:00,28.7,28.7,29.66,SSW,202,0.0,3.0,100,0.00,,,0.00,Weather View 32 v70,2013-04-15 08:40:00,
2013-04-15 04:45:00,28.5,28.5,29.66,SSW,202,0.0,3.0,100,0.00,,,0.00,Weather View 32 v70,2013-04-15 08:45:00,
2013-04-15 04:50:00,28.4,28.4,29.66,SSE,157,0.0,3.0,100,0.00,,,0.00,Weather View 32 v70,2013-04-15 08:50:00,
2013-04-15 04:55:00,28.4,28.4,29.67,SSE,157,0.0,3.0,100,0.00,,,0.00,Weather View 32 v70,2013-04-15 08:55:00,
2013-04-15 05:00:00,28.3,28.3,29.67,SSE,157,0.0,3.0,100,0.00,,,0.00,Weather View 32 v70,2013-04-15 09:00:00,
2013-04-15 05:05:00,28.0,28.0,29.67,ENE,67,0.0,3.0,100,0.00,,,0.00,Weather View 32 v70,2013-04-15 09:05:00,
2013-04-15 05:10:00,27.6,27.6,29.67,ENE,67,0.0,3.0,100,0.00,,,0.00,Weather View 32 v70,2013-04-15 09:10:00,
2013-04-15 05:15:00,27.4,27.4,29.67,ENE,67,0.0,3.0,100,0.00,,,0.00,Weather View 32 v70,2013-04-15 09:15:00,
2013-04-15 05:20:00,27.0,27.0,29.67,SE,135,0.0,3.0,100,0.00,,,0.00,Weather View 32 v70,2013-04-15 09:20:00,
2013-04-15 05:25:00,26.9,26.9,29.67,SSE,157,0.0,3.0,100,0.00,,,0.00,Weather View 32 v70,2013-04-15 09:25:00,
2013-04-15 05:30:00,26.7,26.7,29.67,SSE,157,0.0,3.0,100,0.00,,,0.00,Weather View 32 v70,2013-04-15 09:30:00,
2013-04-15 05:35:00,27.2,27.2,29.67,SSE,157,0.0,3.0,100,0.00,,,0.00,Weather View 32 v70,2013-04-15 09:35:00,
2013-04-15 05:40:00,27.1,27.1,29.67,NNE,22,0.0,3.0,100,0.00,,,0.00,Weather View 32 v70,2013-04-15 09:40:00,
2013-04-15 05:45:00,27.2,27.2,29.67,East,90,0.0,3.0,100,0.00,,,0.00,Weather View 32 v70,2013-04-15 09:45:00,
2013-04-15 05:51:00,26.8,26.8,29.67,East,90,1.0,3.0,100,0.00,,,0.00,Weather View 32 v70,2013-04-15 09:51:00,
2013-04-15 05:56:00,27.0,27.0,29.67,East,90,0.0,3.0,100,0.00,,,0.00,Weather View 32 v70,2013-04-15 09:56:00,
2013-04-15 06:01:00,26.8,26.8,29.67,East,90,0.0,3.0,100,0.00,,,0.00,Weather View 32 v70,2013-04-15 10:01:00,
2013-04-15 06:06:00,26.6,26.6,29.68,East,90,0.0,3.0,100,0.00,,,0.00,Weather View 32 v70,2013-04-15 10:06:00,
2013-04-15 06:11:00,26.6,26.6,29.68,East,90,0.0,3.0,100,0.00,,,0.00,Weather View 32 v70,2013-04-15 10:11:00,
2013-04-15 06:16:00,26.4,26.4,29.68,East,90,0.0,3.0,100,0.00,,,0.00,Weather View 32 v70,2013-04-15 10:16:00,
2013-04-15 06:21:00,27.3,27.3,29.69,East,90,0.0,3.0,100,0.00,,,0.00,Weather View 32 v70,2013-04-15 10:21:00,
2013-04-15 06:26:00,27.4,27.4,29.69,East,90,0.0,3.0,100,0.00,,,0.00,Weather View 32 v70,2013-04-15 10:26:00,
2013-04-15 06:31:00,27.7,27.7,29.69,East,90,0.0,3.0,100,0.00,,,0.00,Weather View 32 v70,2013-04-15 10:31:00,
2013-04-15 06:36:00,28.1,28.1,29.69,East,90,0.0,3.0,100,0.00,,,0.00,Weather View 32 v70,2013-04-15 10:36:00,
2013-04-15 06:41:00,28.9,28.9,29.70,East,90,0.0,3.0,100,0.00,,,0.00,Weather View 32 v70,2013-04-15 10:41:00,
2013-04-15 06:46:00,29.4,29.4,29.70,East,90,0.0,3.0,100,0.00,,,0.00,Weather View 32 v70,2013-04-15 10:46:00,
2013-04-15 06:51:00,29.4,29.4,29.70,East,90,0.0,3.0,100,0.00,,,0.00,Weather View 32 v70,2013-04-15 10:51:00,
2013-04-15 06:56:00,29.7,29.7,29.71,East,90,0.0,3.0,100,0.00,,,0.00,Weather View 32 v70,2013-04-15 10:56:00,
2013-04-15 07:02:00,30.4,30.4,29.71,East,90,0.0,0.0,100,0.00,,,0.00,Weather View 32 v70,2013-04-15 11:02:00,
2013-04-15 07:07:00,32.7,32.7,29.70,East,90,0.0,0.0,100,0.00,,,0.00,Weather View 32 v70,2013-04-15 11:07:00,
2013-04-15 07:12:00,34.8,34.8,29.71,East,90,0.0,0.0,100,0.00,,,0.00,Weather View 32 v70,2013-04-15 11:12:00,
2013-04-15 07:17:00,36.1,36.1,29.71,East,90,0.0,0.0,100,0.00,,,0.00,Weather View 32 v70,2013-04-15 11:17:00,
2013-04-15 07:22:00,36.4,36.4,29.71,WSW,247,0.0,1.0,100,0.00,,,0.00,Weather View 32 v70,2013-04-15 11:22:00,
2013-04-15 07:27:00,36.2,36.2,29.72,West,270,0.0,2.0,100,0.00,,,0.00,Weather View 32 v70,2013-04-15 11:27:00,
2013-04-15 07:32:00,36.6,36.6,29.72,West,270,0.0,2.0,100,0.00,,,0.00,Weather View 32 v70,2013-04-15 11:32:00,
2013-04-15 07:37:00,36.5,36.5,29.73,West,270,0.0,2.0,100,0.00,,,0.00,Weather View 32 v70,2013-04-15 11:37:00,
2013-04-15 07:42:00,35.4,35.4,29.73,West,270,1.0,4.0,100,0.00,,,0.00,Weather View 32 v70,2013-04-15 11:42:00,
2013-04-15 07:47:00,35.3,35.3,29.73,NW,315,0.0,4.0,100,0.00,,,0.00,Weather View 32 v70,2013-04-15 11:47:00,
2013-04-15 07:52:00,36.2,36.2,29.74,NNW,337,0.0,4.0,100,0.00,,,0.00,Weather View 32 v70,2013-04-15 11:52:00,
2013-04-15 07:57:00,35.9,35.9,29.74,North,360,0.0,4.0,100,0.00,,,0.00,Weather View 32 v70,2013-04-15 11:57:00,
2013-04-15 08:02:00,36.0,36.0,29.74,North,360,0.0,4.0,100,0.00,,,0.00,Weather View 32 v70,2013-04-15 12:02:00,
2013-04-15 08:08:00,36.8,36.8,29.74,NNW,337,0.0,4.0,100,0.00,,,0.00,Weather View 32 v70,2013-04-15 12:08:00,
2013-04-15 08:13:00,37.5,37.5,29.72,NW,315,0.0,4.0,100,0.00,,,0.00,Weather View 32 v70,2013-04-15 12:13:00,
2013-04-15 08:18:00,37.9,37.9,29.72,NNW,337,0.0,4.0,100,0.00,,,0.00,Weather View 32 v70,2013-04-15 12:18:00,
2013-04-15 08:23:00,38.0,37.2,29.72,NNW,337,2.0,5.0,97,0.00,,,0.00,Weather View 32 v70,2013-04-15 12:23:00,
2013-04-15 08:28:00,37.6,36.0,29.72,WSW,247,3.0,5.0,94,0.00,,,0.00,Weather View 32 v70,2013-04-15 12:28:00,
2013-04-15 08:33:00,36.9,35.9,29.73,West,270,1.0,5.0,96,0.00,,,0.00,Weather View 32 v70,2013-04-15 12:33:00,
2013-04-15 08:38:00,36.3,35.3,29.74,West,270,2.0,6.0,96,0.00,,,0.00,Weather View 32 v70,2013-04-15 12:38:00,
2013-04-15 08:43:00,36.0,35.5,29.74,WNW,292,1.0,6.0,98,0.00,,,0.00,Weather View 32 v70,2013-04-15 12:43:00,
2013-04-15 08:48:00,36.2,35.9,29.74,WNW,292,2.0,6.0,99,0.00,,,0.00,Weather View 32 v70,2013-04-15 12:48:00,
2013-04-15 08:53:00,36.2,36.2,29.74,WNW,292,0.0,6.0,100,0.00,,,0.00,Weather View 32 v70,2013-04-15 12:53:00,
2013-04-15 08:58:00,36.4,36.4,29.74,WNW,292,0.0,6.0,100,0.00,,,0.00,Weather View 32 v70,2013-04-15 12:58:00,
2013-04-15 09:03:00,36.8,36.8,29.74,WNW,292,0.0,6.0,100,0.00,,,0.00,Weather View 32 v70,2013-04-15 13:03:00,
2013-04-15 09:08:00,37.3,37.0,29.73,NW,315,0.0,6.0,99,0.00,,,0.00,Weather View 32 v70,2013-04-15 13:08:00,
2013-04-15 09:13:00,37.9,37.6,29.73,NW,315,2.0,6.0,99,0.00,,,0.00,Weather View 32 v70,2013-04-15 13:13:00,
2013-04-15 09:18:00,38.3,37.5,29.73,WNW,292,1.0,6.0,97,0.00,,,0.00,Weather View 32 v70,2013-04-15 13:18:00,
2013-04-15 09:23:00,39.1,38.1,29.73,SSW,202,0.0,6.0,96,0.00,,,0.00,Weather View 32 v70,2013-04-15 13:23:00,
2013-04-15 09:28:00,39.6,38.0,29.73,West,270,0.0,6.0,94,0.00,,,0.00,Weather View 32 v70,2013-04-15 13:28:00,
2013-04-15 09:33:00,40.7,39.1,29.73,NW,315,0.0,6.0,94,0.00,,,0.00,Weather View 32 v70,2013-04-15 13:33:00,
2013-04-15 09:39:00,42.4,40.5,29.72,NW,315,0.0,6.0,93,0.00,,,0.00,Weather View 32 v70,2013-04-15 13:39:00,
2013-04-15 09:44:00,43.8,39.6,29.72,NW,315,0.0,6.0,85,0.00,,,0.00,Weather View 32 v70,2013-04-15 13:44:00,
2013-04-15 09:49:00,45.1,40.9,29.72,WNW,292,1.0,6.0,85,0.00,,,0.00,Weather View 32 v70,2013-04-15 13:49:00,
2013-04-15 09:54:00,45.6,37.1,29.72,WNW,292,5.0,6.0,72,0.00,,,0.00,Weather View 32 v70,2013-04-15 13:54:00,
2013-04-15 09:59:00,45.2,37.7,29.72,NW,315,0.0,6.0,75,0.00,,,0.00,Weather View 32 v70,2013-04-15 13:59:00,
2013-04-15 10:04:00,45.7,38.6,29.72,WNW,292,0.0,6.0,76,0.00,,,0.00,Weather View 32 v70,2013-04-15 14:04:00,
2013-04-15 10:09:00,46.7,38.5,29.72,NNE,22,1.0,6.0,73,0.00,,,0.00,Weather View 32 v70,2013-04-15 14:09:00,
2013-04-15 10:14:00,46.8,36.0,29.73,ENE,67,7.0,7.0,66,0.00,,,0.00,Weather View 32 v70,2013-04-15 14:14:00,
2013-04-15 10:19:00,47.1,38.2,29.73,ESE,112,1.0,7.0,71,0.00,,,0.00,Weather View 32 v70,2013-04-15 14:19:00,
2013-04-15 10:25:00,47.5,36.3,29.72,North,360,0.0,7.0,65,0.00,,,0.00,Weather View 32 v70,2013-04-15 14:25:00,
2013-04-15 10:30:00,47.7,35.3,29.73,WNW,292,3.0,7.0,62,0.00,,,0.00,Weather View 32 v70,2013-04-15 14:30:00,
2013-04-15 10:35:00,47.4,34.2,29.73,WNW,292,3.0,7.0,60,0.00,,,0.00,Weather View 32 v70,2013-04-15 14:35:00,
2013-04-15 10:40:00,47.9,35.5,29.73,NNW,337,0.0,7.0,62,0.00,,,0.00,Weather View 32 v70,2013-04-15 14:40:00,
2013-04-15 10:45:00,49.0,36.5,29.73,North,360,0.0,7.0,62,0.00,,,0.00,Weather View 32 v70,2013-04-15 14:45:00,
2013-04-15 10:50:00,50.3,36.1,29.73,SSE,157,3.0,7.0,58,0.00,,,0.00,Weather View 32 v70,2013-04-15 14:50:00,
2013-04-15 10:55:00,51.1,36.4,29.73,SSE,157,3.0,7.0,57,0.00,,,0.00,Weather View 32 v70,2013-04-15 14:55:00,
2013-04-15 11:00:00,50.3,33.8,29.72,ESE,112,9.0,10.0,53,0.00,,,0.00,Weather View 32 v70,2013-04-15 15:00:00,
2013-04-15 11:05:00,48.7,33.7,29.73,ENE,67,7.0,14.0,56,0.00,,,0.00,Weather View 32 v70,2013-04-15 15:05:00,
2013-04-15 11:10:00,48.2,33.2,29.73,ENE,67,7.0,14.0,56,0.00,,,0.00,Weather View 32 v70,2013-04-15 15:10:00,
2013-04-15 11:15:00,49.2,34.1,29.73,ENE,67,13.0,14.0,56,0.00,,,0.00,Weather View 32 v70,2013-04-15 15:15:00,
2013-04-15 11:20:00,49.4,33.9,29.73,South,180,12.0,15.0,55,0.00,,,0.00,Weather View 32 v70,2013-04-15 15:20:00,
2013-04-15 11:25:00,49.6,32.2,29.73,ESE,112,6.0,15.0,51,0.00,,,0.00,Weather View 32 v70,2013-04-15 15:25:00,
2013-04-15 11:30:00,48.9,30.5,29.72,ESE,112,12.0,15.0,49,0.00,,,0.00,Weather View 32 v70,2013-04-15 15:30:00,
2013-04-15 11:36:00,48.3,30.0,29.72,SW,225,6.0,15.0,49,0.00,,,0.00,Weather View 32 v70,2013-04-15 15:36:00,
2013-04-15 11:41:00,49.0,30.1,29.72,East,90,8.0,15.0,48,0.00,,,0.00,Weather View 32 v70,2013-04-15 15:41:00,
2013-04-15 11:47:00,49.1,30.7,29.72,East,90,3.0,15.0,49,0.03,,,0.00,Weather View 32 v70,2013-04-15 15:47:00,
2013-04-15 11:52:00,49.8,31.9,29.72,SSE,157,6.0,15.0,50,0.00,,,0.00,Weather View 32 v70,2013-04-15 15:52:00,
2013-04-15 11:57:00,51.1,32.1,29.71,South,180,5.0,15.0,48,0.00,,,0.00,Weather View 32 v70,2013-04-15 15:57:00,
2013-04-15 12:02:00,51.0,31.4,29.71,ESE,112,4.0,15.0,47,0.00,,,0.00,Weather View 32 v70,2013-04-15 16:02:00,
2013-04-15 12:07:00,50.7,30.6,29.71,ESE,112,1.0,15.0,46,0.00,,,0.00,Weather View 32 v70,2013-04-15 16:07:00,
2013-04-15 12:12:00,51.2,31.6,29.71,ESE,112,7.0,15.0,47,0.00,,,0.00,Weather View 32 v70,2013-04-15 16:12:00,
2013-04-15 12:17:00,51.4,30.2,29.71,SSE,157,6.0,15.0,44,0.00,,,0.00,Weather View 32 v70,2013-04-15 16:17:00,
2013-04-15 12:23:00,51.3,31.2,29.71,SSE,157,7.0,15.0,46,0.00,,,0.00,Weather View 32 v70,2013-04-15 16:23:00,
2013-04-15 12:28:00,51.2,29.4,29.71,NE,45,2.0,16.0,43,0.00,,,0.00,Weather View 32 v70,2013-04-15 16:28:00,
2013-04-15 12:33:00,52.1,31.9,29.71,WSW,247,0.0,16.0,46,0.00,,,0.00,Weather View 32 v70,2013-04-15 16:33:00,
2013-04-15 12:38:00,53.1,31.7,29.70,South,180,0.0,16.0,44,0.00,,,0.00,Weather View 32 v70,2013-04-15 16:38:00,
2013-04-15 12:43:00,53.3,31.9,29.70,SSE,157,12.0,16.0,44,0.00,,,0.00,Weather View 32 v70,2013-04-15 16:43:00,
2013-04-15 12:48:00,53.0,29.9,29.70,SSE,157,11.0,16.0,41,0.00,,,0.00,Weather View 32 v70,2013-04-15 16:48:00,
2013-04-15 12:53:00,52.9,27.9,29.70,SE,135,7.0,16.0,38,0.00,,,0.00,Weather View 32 v70,2013-04-15 16:53:00,
2013-04-15 12:58:00,52.9,27.3,29.70,SSW,202,7.0,16.0,37,0.00,,,0.00,Weather View 32 v70,2013-04-15 16:58:00,
2013-04-15 13:03:00,52.7,26.4,29.70,SSW,202,7.0,16.0,36,0.00,,,0.00,Weather View 32 v70,2013-04-15 17:03:00,
2013-04-15 13:08:00,53.1,28.1,29.70,South,180,6.0,16.0,38,0.00,,,0.00,Weather View 32 v70,2013-04-15 17:08:00,
2013-04-15 13:13:00,53.0,27.4,29.70,SSW,202,9.0,16.0,37,0.00,,,0.00,Weather View 32 v70,2013-04-15 17:13:00,
2013-04-15 13:18:00,53.5,30.3,29.70,SE,135,5.0,19.0,41,0.00,,,0.00,Weather View 32 v70,2013-04-15 17:18:00,
2013-04-15 13:21:00,53.6,29.2,29.70,South,180,5.0,19.0,39,0.00,,,0.00,Weather View 32 v70,2013-04-15 17:21:00,
2013-04-15 13:22:00,53.6,29.2,29.70,SSE,157,4.0,19.0,39,0.00,,,0.00,Weather View 32 v70,2013-04-15 17:22:00,
2013-04-15 13:25:00,53.9,29.5,29.70,SSE,157,5.0,19.0,39,0.00,,,0.00,Weather View 32 v70,2013-04-15 17:25:00,
2013-04-15 13:30:00,54.1,28.4,29.69,ESE,112,5.0,19.0,37,0.00,,,0.00,Weather View 32 v70,2013-04-15 17:30:00,
2013-04-15 13:35:00,53.7,28.0,29.69,South,180,6.0,19.0,37,0.00,,,0.00,Weather View 32 v70,2013-04-15 17:35:00,
2013-04-15 13:40:00,54.1,29.6,29.69,SE,135,6.0,19.0,39,0.00,,,0.00,Weather View 32 v70,2013-04-15 17:40:00,
2013-04-15 13:45:00,54.1,28.4,29.69,SSW,202,7.0,19.0,37,0.00,,,0.00,Weather View 32 v70,2013-04-15 17:45:00,
2013-04-15 13:50:00,54.4,28.0,29.69,ESE,112,13.0,19.0,36,0.00,,,0.00,Weather View 32 v70,2013-04-15 17:50:00,
2013-04-15 13:56:00,55.1,29.2,29.69,SE,135,6.0,19.0,37,0.00,,,0.00,Weather View 32 v70,2013-04-15 17:56:00,
2013-04-15 14:01:00,55.1,29.2,29.68,SSE,157,10.0,19.0,37,0.00,,,0.00,Weather View 32 v70,2013-04-15 18:01:00,
2013-04-15 14:06:00,55.4,29.5,29.68,ESE,112,3.0,19.0,37,0.00,,,0.00,Weather View 32 v70,2013-04-15 18:06:00,
2013-04-15 14:11:00,56.4,31.1,29.68,South,180,6.0,19.0,38,0.00,,,0.00,Weather View 32 v70,2013-04-15 18:11:00,
2013-04-15 14:17:00,56.4,29.0,29.68,ESE,112,7.0,19.0,35,0.00,,,0.00,Weather View 32 v70,2013-04-15 18:17:00,
2013-04-15 14:22:00,55.7,29.1,29.68,SSE,157,6.0,19.0,36,0.00,,,0.00,Weather View 32 v70,2013-04-15 18:22:00,
2013-04-15 14:27:00,55.7,29.1,29.68,SSW,202,6.0,19.0,36,0.00,,,0.00,Weather View 32 v70,2013-04-15 18:27:00,
2013-04-15 14:29:00,56.1,30.1,29.68,SSE,157,5.0,19.0,37,0.04,,,0.00,Weather View 32 v70,2013-04-15 18:29:00,
2013-04-15 14:34:00,56.6,30.6,29.67,South,180,9.0,19.0,37,0.00,,,0.00,Weather View 32 v70,2013-04-15 18:34:00,
2013-04-15 14:39:00,56.3,30.3,29.66,SSE,157,6.0,19.0,37,0.00,,,0.00,Weather View 32 v70,2013-04-15 18:39:00,
2013-04-15 14:44:00,56.6,29.2,29.66,East,90,8.0,19.0,35,0.00,,,0.00,Weather View 32 v70,2013-04-15 18:44:00,
2013-04-15 14:49:00,56.3,29.6,29.66,ENE,67,8.0,19.0,36,0.00,,,0.00,Weather View 32 v70,2013-04-15 18:49:00,
2013-04-15 14:54:00,56.1,30.1,29.65,East,90,13.0,19.0,37,0.00,,,0.00,Weather View 32 v70,2013-04-15 18:54:00,
2013-04-15 14:59:00,55.8,29.9,29.65,South,180,1.0,19.0,37,0.00,,,0.00,Weather View 32 v70,2013-04-15 18:59:00,
2013-04-15 15:04:00,57.4,31.3,29.65,ENE,67,6.0,16.0,37,0.00,,,0.00,Weather View 32 v70,2013-04-15 19:04:00,
2013-04-15 15:09:00,58.1,31.2,29.65,ESE,112,9.0,16.0,36,0.00,,,0.00,Weather View 32 v70,2013-04-15 19:09:00,
2013-04-15 15:14:00,58.8,35.1,29.65,ESE,112,9.0,16.0,41,0.00,,,0.00,Weather View 32 v70,2013-04-15 19:14:00,
2013-04-15 15:19:00,59.4,34.4,29.65,South,180,7.0,15.0,39,0.00,,,0.00,Weather View 32 v70,2013-04-15 19:19:00,
2013-04-15 15:24:00,59.6,35.2,29.65,SE,135,8.0,15.0,40,0.00,,,0.00,Weather View 32 v70,2013-04-15 19:24:00,
2013-04-15 15:29:00,58.4,30.8,29.65,SE,135,11.0,17.0,35,0.00,,,0.00,Weather View 32 v70,2013-04-15 19:29:00,
2013-04-15 15:34:00,58.3,31.4,29.65,SSW,202,0.0,17.0,36,0.00,,,0.00,Weather View 32 v70,2013-04-15 19:34:00,
2013-04-15 15:39:00,58.6,31.7,29.65,ESE,112,7.0,17.0,36,0.00,,,0.00,Weather View 32 v70,2013-04-15 19:39:00,
2013-04-15 15:45:00,58.9,32.6,29.64,SSW,202,12.0,17.0,37,0.00,,,0.00,Weather View 32 v70,2013-04-15 19:45:00,
2013-04-15 15:50:00,59.2,32.2,29.64,SSW,202,9.0,17.0,36,0.00,,,0.00,Weather View 32 v70,2013-04-15 19:50:00,
2013-04-15 15:55:00,59.5,33.8,29.64,SSE,157,7.0,17.0,38,0.00,,,0.00,Weather View 32 v70,2013-04-15 19:55:00,
2013-04-15 15:57:00,60.1,33.7,29.64,South,180,12.0,17.0,37,0.00,,,0.00,Weather View 32 v70,2013-04-15 19:57:00,
2013-04-15 15:58:00,60.4,34.0,29.65,SSE,157,8.0,17.0,37,0.00,,,0.00,Weather View 32 v70,2013-04-15 19:58:00,
2013-04-15 16:02:00,60.4,33.3,29.65,SSE,157,6.0,17.0,36,0.00,,,0.00,Weather View 32 v70,2013-04-15 20:02:00,
2013-04-15 16:03:00,60.6,33.4,29.64,South,180,7.0,17.0,36,0.00,,,0.00,Weather View 32 v70,2013-04-15 20:03:00,
2013-04-15 16:08:00,59.9,32.8,29.64,East,90,4.0,17.0,36,0.00,,,0.00,Weather View 32 v70,2013-04-15 20:08:00,
2013-04-15 16:13:00,60.4,34.0,29.63,SSW,202,6.0,17.0,37,0.00,,,0.00,Weather View 32 v70,2013-04-15 20:13:00,
2013-04-15 16:18:00,60.6,32.7,29.63,ESE,112,2.0,17.0,35,0.00,,,0.00,Weather View 32 v70,2013-04-15 20:18:00,
2013-04-15 16:23:00,60.7,34.9,29.63,SSW,202,1.0,17.0,38,0.00,,,0.00,Weather View 32 v70,2013-04-15 20:23:00,
2013-04-15 16:28:00,60.7,32.8,29.63,South,180,9.0,17.0,35,0.00,,,0.00,Weather View 32 v70,2013-04-15 20:28:00,
2013-04-15 16:33:00,61.0,34.5,29.63,ESE,112,0.0,15.0,37,0.00,,,0.00,Weather View 32 v70,2013-04-15 20:33:00,
2013-04-15 16:38:00,61.0,34.5,29.63,West,270,0.0,15.0,37,0.00,,,0.00,Weather View 32 v70,2013-04-15 20:38:00,
2013-04-15 16:43:00,60.9,34.4,29.63,SSW,202,8.0,15.0,37,0.00,,,0.00,Weather View 32 v70,2013-04-15 20:43:00,
2013-04-15 16:48:00,60.2,33.1,29.64,SE,135,6.0,15.0,36,0.00,,,0.00,Weather View 32 v70,2013-04-15 20:48:00,
2013-04-15 16:53:00,59.8,34.1,29.64,SE,135,5.0,15.0,38,0.00,,,0.00,Weather View 32 v70,2013-04-15 20:53:00,
2013-04-15 16:58:00,60.5,34.0,29.63,SE,135,10.0,15.0,37,0.00,,,0.00,Weather View 32 v70,2013-04-15 20:58:00,
2013-04-15 17:03:00,60.2,33.8,29.63,SE,135,9.0,15.0,37,0.00,,,0.00,Weather View 32 v70,2013-04-15 21:03:00,
2013-04-15 17:08:00,60.7,34.2,29.63,SSE,157,9.0,15.0,37,0.00,,,0.00,Weather View 32 v70,2013-04-15 21:08:00,
2013-04-15 17:13:00,60.2,33.8,29.63,SSE,157,10.0,15.0,37,0.00,,,0.00,Weather View 32 v70,2013-04-15 21:13:00,
2013-04-15 17:18:00,59.4,33.1,29.64,ESE,112,0.0,15.0,37,0.00,,,0.00,Weather View 32 v70,2013-04-15 21:18:00,
2013-04-15 17:23:00,60.4,34.6,29.64,ESE,112,5.0,15.0,38,0.00,,,0.00,Weather View 32 v70,2013-04-15 21:23:00,
2013-04-15 17:28:00,60.7,34.2,29.64,South,180,1.0,15.0,37,0.00,,,0.00,Weather View 32 v70,2013-04-15 21:28:00,
2013-04-15 17:33:00,60.2,34.4,29.64,SSW,202,3.0,15.0,38,0.00,,,0.00,Weather View 32 v70,2013-04-15 21:33:00,
2013-04-15 17:38:00,60.0,34.3,29.64,South,180,3.0,15.0,38,0.00,,,0.00,Weather View 32 v70,2013-04-15 21:38:00,
2013-04-15 17:43:00,60.8,35.0,29.65,SSW,202,7.0,15.0,38,0.00,,,0.00,Weather View 32 v70,2013-04-15 21:43:00,
2013-04-15 17:48:00,60.2,33.8,29.66,WSW,247,7.0,15.0,37,0.00,,,0.00,Weather View 32 v70,2013-04-15 21:48:00,
2013-04-15 17:53:00,59.8,34.7,29.66,SW,225,3.0,15.0,39,0.00,,,0.00,Weather View 32 v70,2013-04-15 21:53:00,
2013-04-15 17:58:00,59.2,33.6,29.66,SSE,157,8.0,15.0,38,0.00,,,0.00,Weather View 32 v70,2013-04-15 21:58:00,
2013-04-15 18:03:00,58.9,33.3,29.66,WSW,247,7.0,15.0,38,0.00,,,0.00,Weather View 32 v70,2013-04-15 22:03:00,
2013-04-15 18:08:00,58.4,32.8,29.66,SSE,157,9.0,15.0,38,0.00,,,0.00,Weather View 32 v70,2013-04-15 22:08:00,
2013-04-15 18:13:00,58.4,33.5,29.66,South,180,8.0,15.0,39,0.00,,,0.00,Weather View 32 v70,2013-04-15 22:13:00,
2013-04-15 18:18:00,58.6,33.7,29.66,SSE,157,8.0,15.0,39,0.00,,,0.00,Weather View 32 v70,2013-04-15 22:18:00,
2013-04-15 18:23:00,58.7,33.1,29.66,South,180,1.0,15.0,38,0.00,,,0.00,Weather View 32 v70,2013-04-15 22:23:00,
2013-04-15 18:28:00,58.9,33.9,29.64,SSE,157,6.0,15.0,39,0.00,,,0.00,Weather View 32 v70,2013-04-15 22:28:00,
2013-04-15 18:33:00,58.8,33.8,29.64,South,180,3.0,13.0,39,0.00,,,0.00,Weather View 32 v70,2013-04-15 22:33:00,
2013-04-15 18:38:00,58.6,33.0,29.64,South,180,1.0,13.0,38,0.00,,,0.00,Weather View 32 v70,2013-04-15 22:38:00,
2013-04-15 18:43:00,58.3,32.7,29.64,SSW,202,7.0,13.0,38,0.00,,,0.00,Weather View 32 v70,2013-04-15 22:43:00,
2013-04-15 18:48:00,58.1,33.2,29.64,SSE,157,3.0,13.0,39,0.00,,,0.00,Weather View 32 v70,2013-04-15 22:48:00,
2013-04-15 18:53:00,58.0,33.1,29.64,SSE,157,6.0,13.0,39,0.00,,,0.00,Weather View 32 v70,2013-04-15 22:53:00,
2013-04-15 18:58:00,57.8,33.0,29.63,SW,225,3.0,13.0,39,0.00,,,0.00,Weather View 32 v70,2013-04-15 22:58:00,
2013-04-15 19:03:00,57.4,33.2,29.63,SSE,157,3.0,13.0,40,0.00,,,0.00,Weather View 32 v70,2013-04-15 23:03:00,
2013-04-15 19:08:00,57.3,33.8,29.63,SE,135,6.0,13.0,41,0.00,,,0.00,Weather View 32 v70,2013-04-15 23:08:00,
2013-04-15 19:13:00,57.1,33.6,29.63,SSE,157,0.0,13.0,41,0.00,,,0.00,Weather View 32 v70,2013-04-15 23:13:00,
2013-04-15 19:18:00,56.6,33.7,29.63,SE,135,0.0,13.0,42,0.00,,,0.00,Weather View 32 v70,2013-04-15 23:18:00,
2013-04-15 19:23:00,56.1,33.9,29.63,SSW,202,2.0,13.0,43,0.00,,,0.00,Weather View 32 v70,2013-04-15 23:23:00,
2013-04-15 19:28:00,55.6,34.0,29.63,SSE,157,0.0,13.0,44,0.00,,,0.00,Weather View 32 v70,2013-04-15 23:28:00,
2013-04-15 19:33:00,55.4,33.8,29.63,SE,135,0.0,13.0,44,0.00,,,0.00,Weather View 32 v70,2013-04-15 23:33:00,
2013-04-15 19:38:00,55.1,33.5,29.63,ESE,112,5.0,13.0,44,0.00,,,0.00,Weather View 32 v70,2013-04-15 23:38:00,
2013-04-15 19:43:00,55.1,33.5,29.63,South,180,2.0,13.0,44,0.00,,,0.00,Weather View 32 v70,2013-04-15 23:43:00,
2013-04-15 19:48:00,54.9,33.9,29.63,East,90,2.0,9.0,45,0.00,,,0.00,Weather View 32 v70,2013-04-15 23:48:00,
2013-04-15 19:53:00,54.8,34.4,29.63,ESE,112,0.0,9.0,46,0.00,,,0.00,Weather View 32 v70,2013-04-15 23:53:00,
2013-04-15 19:58:00,53.8,34.0,29.63,SSW,202,0.0,9.0,47,0.00,,,0.00,Weather View 32 v70,2013-04-15 23:58:00,
2013-04-15 20:03:00,53.8,34.0,29.63,ESE,112,5.0,10.0,47,0.00,,,0.00,Weather View 32 v70,2013-04-16 00:03:00,
2013-04-15 20:08:00,54.2,34.4,29.63,SSE,157,2.0,10.0,47,0.00,,,0.00,Weather View 32 v70,2013-04-16 00:08:00,
2013-04-15 20:13:00,54.6,34.7,29.63,SE,135,2.0,10.0,47,0.00,,,0.00,Weather View 32 v70,2013-04-16 00:13:00,
2013-04-15 20:18:00,55.1,34.6,29.62,SE,135,5.0,10.0,46,0.00,,,0.00,Weather View 32 v70,2013-04-16 00:18:00,
2013-04-15 20:23:00,55.1,34.6,29.62,SSE,157,9.0,13.0,46,0.00,,,0.00,Weather View 32 v70,2013-04-16 00:23:00,
2013-04-15 20:28:00,54.9,34.5,29.62,SSW,202,9.0,15.0,46,0.00,,,0.00,Weather View 32 v70,2013-04-16 00:28:00,
2013-04-15 20:33:00,55.1,34.6,29.62,South,180,9.0,15.0,46,0.00,,,0.00,Weather View 32 v70,2013-04-16 00:33:00,
2013-04-15 20:38:00,55.1,34.6,29.62,SSE,157,7.0,15.0,46,0.00,,,0.00,Weather View 32 v70,2013-04-16 00:38:00,
2013-04-15 20:43:00,55.2,34.7,29.62,SSW,202,7.0,17.0,46,0.00,,,0.00,Weather View 32 v70,2013-04-16 00:43:00,
2013-04-15 20:48:00,55.4,34.4,29.63,SSE,157,5.0,17.0,45,0.00,,,0.00,Weather View 32 v70,2013-04-16 00:48:00,
2013-04-15 20:53:00,55.4,33.8,29.63,South,180,5.0,17.0,44,0.00,,,0.00,Weather View 32 v70,2013-04-16 00:53:00,
2013-04-15 20:58:00,55.4,33.8,29.63,South,180,5.0,17.0,44,0.00,,,0.00,Weather View 32 v70,2013-04-16 00:58:00,
2013-04-15 21:03:00,55.6,34.0,29.63,SSE,157,5.0,17.0,44,0.00,,,0.00,Weather View 32 v70,2013-04-16 01:03:00,
2013-04-15 21:08:00,55.6,34.0,29.63,SSW,202,8.0,17.0,44,0.00,,,0.00,Weather View 32 v70,2013-04-16 01:08:00,
2013-04-15 21:13:00,55.6,34.0,29.63,South,180,10.0,17.0,44,0.00,,,0.00,Weather View 32 v70,2013-04-16 01:13:00,
2013-04-15 21:18:00,55.6,34.0,29.63,SE,135,7.0,18.0,44,0.00,,,0.00,Weather View 32 v70,2013-04-16 01:18:00,
2013-04-15 21:23:00,55.8,33.6,29.63,SSE,157,6.0,18.0,43,0.00,,,0.00,Weather View 32 v70,2013-04-16 01:23:00,
2013-04-15 21:28:00,55.6,34.0,29.63,SSE,157,6.0,18.0,44,0.00,,,0.00,Weather View 32 v70,2013-04-16 01:28:00,
2013-04-15 21:33:00,55.2,33.6,29.63,SSE,157,5.0,18.0,44,0.00,,,0.00,Weather View 32 v70,2013-04-16 01:33:00,
2013-04-15 21:38:00,55.4,33.8,29.64,South,180,5.0,18.0,44,0.00,,,0.00,Weather View 32 v70,2013-04-16 01:38:00,
2013-04-15 21:43:00,55.4,33.8,29.64,SSE,157,2.0,18.0,44,0.00,,,0.00,Weather View 32 v70,2013-04-16 01:43:00,
2013-04-15 21:48:00,55.2,33.6,29.64,SE,135,0.0,18.0,44,0.00,,,0.00,Weather View 32 v70,2013-04-16 01:48:00,
2013-04-15 21:53:00,55.1,33.5,29.64,ESE,112,0.0,18.0,44,0.00,,,0.00,Weather View 32 v70,2013-04-16 01:53:00,
2013-04-15 21:58:00,54.7,34.3,29.65,ENE,67,1.0,18.0,46,0.00,,,0.00,Weather View 32 v70,2013-04-16 01:58:00,
2013-04-15 22:03:00,54.0,34.2,29.65,SSW,202,3.0,18.0,47,0.00,,,0.00,Weather View 32 v70,2013-04-16 02:03:00,
2013-04-15 22:08:00,53.7,33.9,29.65,SSE,157,5.0,18.0,47,0.00,,,0.00,Weather View 32 v70,2013-04-16 02:08:00,
2013-04-15 22:13:00,53.8,34.0,29.65,ESE,112,0.0,18.0,47,0.00,,,0.00,Weather View 32 v70,2013-04-16 02:13:00,
2013-04-15 22:18:00,53.8,34.5,29.65,ESE,112,7.0,16.0,48,0.00,,,0.00,Weather View 32 v70,2013-04-16 02:18:00,
2013-04-15 22:23:00,53.7,33.9,29.65,SSE,157,3.0,16.0,47,0.00,,,0.00,Weather View 32 v70,2013-04-16 02:23:00,
2013-04-15 22:28:00,53.8,34.0,29.65,ESE,112,0.0,16.0,47,0.00,,,0.00,Weather View 32 v70,2013-04-16 02:28:00,
2013-04-15 22:33:00,53.9,34.1,29.66,East,90,6.0,12.0,47,0.00,,,0.00,Weather View 32 v70,2013-04-16 02:33:00,
2013-04-15 22:38:00,54.0,34.2,29.66,ESE,112,1.0,12.0,47,0.00,,,0.00,Weather View 32 v70,2013-04-16 02:38:00,
2013-04-15 22:43:00,53.7,33.9,29.66,ENE,67,4.0,12.0,47,0.00,,,0.00,Weather View 32 v70,2013-04-16 02:43:00,
2013-04-15 22:48:00,53.4,33.6,29.66,ENE,67,4.0,12.0,47,0.00,,,0.00,Weather View 32 v70,2013-04-16 02:48:00,
2013-04-15 22:53:00,53.3,34.1,29.66,East,90,6.0,13.0,48,0.00,,,0.00,Weather View 32 v70,2013-04-16 02:53:00,
2013-04-15 22:58:00,53.2,34.0,29.66,ESE,112,2.0,13.0,48,0.00,,,0.00,Weather View 32 v70,2013-04-16 02:58:00,
2013-04-15 23:03:00,53.1,34.4,29.66,SSE,157,7.0,13.0,49,0.00,,,0.00,Weather View 32 v70,2013-04-16 03:03:00,
2013-04-15 23:08:00,52.8,34.1,29.66,East,90,6.0,13.0,49,0.00,,,0.00,Weather View 32 v70,2013-04-16 03:08:00,
2013-04-15 23:13:00,52.8,33.6,29.66,SSE,157,3.0,13.0,48,0.00,,,0.00,Weather View 32 v70,2013-04-16 03:13:00,
2013-04-15 23:18:00,52.7,34.0,29.66,SSE,157,8.0,17.0,49,0.00,,,0.00,Weather View 32 v70,2013-04-16 03:18:00,
2013-04-15 23:23:00,52.6,33.9,29.66,SSE,157,3.0,17.0,49,0.00,,,0.00,Weather View 32 v70,2013-04-16 03:23:00,
2013-04-15 23:28:00,52.4,33.8,29.65,ESE,112,7.0,17.0,49,0.00,,,0.00,Weather View 32 v70,2013-04-16 03:28:00,
2013-04-15 23:33:00,52.4,33.8,29.65,SE,135,3.0,17.0,49,0.00,,,0.00,Weather View 32 v70,2013-04-16 03:33:00,
2013-04-15 23:38:00,52.3,33.7,29.65,East,90,5.0,17.0,49,0.00,,,0.00,Weather View 32 v70,2013-04-16 03:38:00,
2013-04-15 23:43:00,52.2,33.6,29.65,SSW,202,7.0,17.0,49,0.00,,,0.00,Weather View 32 v70,2013-04-16 03:43:00,
2013-04-15 23:48:00,52.2,33.6,29.65,SE,135,8.0,17.0,49,0.00,,,0.00,Weather View 32 v70,2013-04-16 03:48:00,
2013-04-15 23:53:00,52.2,33.6,29.65,East,90,2.0,17.0,49,0.00,,,0.00,Weather View 32 v70,2013-04-16 03:53:00,
2013-04-15 23:58:00,52.2,33.6,29.65,ESE,112,3.0,17.0,49,0.00,,,0.00,Weather View 32 v70,2013-04-16 03:58:00,